createdAt,value
2018-04-25T00:00:16.617Z,43.50
2018-04-25T00:02:44.856Z,42.13
2018-04-25T00:05:13.877Z,40.40
2018-04-25T00:07:42.103Z,42.97
2018-04-25T00:10:10.347Z,42.47
2018-04-25T00:12:38.972Z,41.40
2018-04-25T00:15:07.195Z,40.43
2018-04-25T00:17:35.425Z,40.80
2018-04-25T00:20:04.452Z,42.67
2018-04-25T00:22:32.687Z,42.53
2018-04-25T00:25:01.699Z,39.17
2018-04-25T00:27:30.700Z,41.67
2018-04-25T00:29:58.960Z,37.87
2018-04-25T00:32:27.965Z,39.57
2018-04-25T00:34:56.214Z,37.13
2018-04-25T00:37:25.210Z,36.77
2018-04-25T00:39:54.235Z,33.27
2018-04-25T00:42:22.515Z,34.13
2018-04-25T00:44:50.770Z,34.33
2018-04-25T00:47:19.007Z,33.03
2018-04-25T00:49:47.255Z,32.07
2018-04-25T00:52:15.487Z,31.20
2018-04-25T00:54:43.742Z,30.80
2018-04-25T00:57:12.869Z,28.57
2018-04-25T00:59:41.048Z,31.63
2018-04-25T01:02:09.283Z,29.47
2018-04-25T01:04:38.294Z,30.67
2018-04-25T01:07:06.533Z,28.33
2018-04-25T01:09:34.778Z,32.20
2018-04-25T01:12:03.800Z,29.07
2018-04-25T01:14:32.023Z,28.33
2018-04-25T01:17:00.258Z,31.83
2018-04-25T01:19:29.272Z,28.43
2018-04-25T01:21:57.521Z,29.87
2018-04-25T01:24:25.768Z,28.57
2018-04-25T01:26:53.998Z,32.87
2018-04-25T01:29:23.156Z,29.63
2018-04-25T01:31:53.286Z,31.23
2018-04-25T01:34:42.062Z,32.13
2018-04-25T01:37:33.146Z,31.60
2018-04-25T01:40:01.366Z,31.03
2018-04-25T01:42:29.603Z,30.47
2018-04-25T01:44:59.274Z,31.03
2018-04-25T01:47:28.914Z,30.50
2018-04-25T01:53:09.276Z,33.40
2018-04-25T01:55:55.580Z,32.17
2018-04-25T01:58:41.700Z,35.53
2018-04-25T02:01:19.394Z,33.43
2018-04-25T02:03:48.302Z,35.27
2018-04-25T02:06:17.074Z,31.07
2018-04-25T02:08:45.315Z,31.00
2018-04-25T02:11:13.570Z,31.03
2018-04-25T02:13:41.809Z,33.07
2018-04-25T02:16:10.063Z,30.20
2018-04-25T02:18:38.302Z,30.37
2018-04-25T02:21:06.544Z,28.13
2018-04-25T02:23:34.784Z,29.20
2018-04-25T02:26:03.804Z,26.43
2018-04-25T02:28:32.042Z,27.77
2018-04-25T02:31:01.047Z,25.63
2018-04-25T02:33:29.299Z,27.60
2018-04-25T02:35:58.302Z,26.57
2018-04-25T02:38:27.315Z,26.40
2018-04-25T02:40:55.559Z,23.97
2018-04-25T02:43:24.583Z,25.40
2018-04-25T02:45:52.818Z,24.83
2018-04-25T02:48:21.843Z,21.17
2018-04-25T02:50:50.077Z,22.37
2018-04-25T02:53:18.322Z,20.07
2018-04-25T02:55:46.564Z,21.43
2018-04-25T02:58:14.816Z,20.33
2018-04-25T03:00:43.823Z,21.20
2018-04-25T03:03:12.071Z,20.57
2018-04-25T03:05:41.076Z,20.97
2018-04-25T03:08:10.095Z,20.13
2018-04-25T03:10:38.331Z,18.57
2018-04-25T03:13:07.355Z,18.63
2018-04-25T03:15:35.588Z,19.80
2018-04-25T03:18:03.835Z,20.33
2018-04-25T03:20:32.067Z,17.93
2018-04-25T03:23:00.318Z,18.03
2018-04-25T03:25:29.322Z,18.47
2018-04-25T03:27:58.343Z,17.60
2018-04-25T03:30:26.634Z,16.80
2018-04-25T03:32:54.943Z,17.07
2018-04-25T03:35:23.171Z,16.23
2018-04-25T03:37:51.436Z,17.90
2018-04-25T03:40:19.675Z,15.90
2018-04-25T03:42:48.687Z,15.80
2018-04-25T03:45:16.939Z,17.43
2018-04-25T03:47:45.942Z,16.87
2018-04-25T03:50:15.324Z,16.87
2018-04-25T03:52:43.531Z,16.80
2018-04-25T03:55:11.777Z,15.83
2018-04-25T03:57:40.779Z,17.27
2018-04-25T04:00:09.790Z,17.07
2018-04-25T04:02:38.026Z,18.57
2018-04-25T04:05:06.274Z,18.50
2018-04-25T04:07:34.502Z,17.17
2018-04-25T04:10:02.764Z,18.17
2018-04-25T04:12:31.771Z,15.37
2018-04-25T04:15:00.033Z,15.53
2018-04-25T04:17:29.023Z,16.87
2018-04-25T04:19:58.037Z,16.93
2018-04-25T04:22:26.285Z,17.43
2018-04-25T04:24:55.320Z,16.07
2018-04-25T04:27:23.543Z,16.17
2018-04-25T04:29:52.602Z,15.43
2018-04-25T04:32:20.840Z,16.70
2018-04-25T04:34:49.096Z,16.03
2018-04-25T04:37:18.103Z,18.77
2018-04-25T04:39:46.356Z,15.47
2018-04-25T04:42:15.359Z,16.17
2018-04-25T04:44:44.378Z,16.57
2018-04-25T04:47:12.611Z,14.67
2018-04-25T04:49:41.623Z,16.60
2018-04-25T04:52:09.866Z,18.37
2018-04-25T04:54:38.109Z,15.90
2018-04-25T04:57:07.111Z,15.63
2018-04-25T04:59:35.419Z,14.53
2018-04-25T05:02:03.612Z,15.33
2018-04-25T05:04:31.852Z,15.33
2018-04-25T05:07:00.106Z,15.03
2018-04-25T05:09:28.342Z,14.80
2018-04-25T05:11:56.588Z,13.07
2018-04-25T05:14:25.586Z,13.83
2018-04-25T05:16:54.606Z,16.37
2018-04-25T05:19:22.845Z,12.83
2018-04-25T05:21:51.865Z,12.60
2018-04-25T05:24:20.141Z,12.57
2018-04-25T05:26:49.127Z,12.03
2018-04-25T05:29:17.364Z,13.27
2018-04-25T05:31:45.617Z,12.33
2018-04-25T05:34:13.858Z,14.37
2018-04-25T05:36:42.110Z,11.90
2018-04-25T05:39:10.346Z,12.20
2018-04-25T05:41:38.596Z,10.43
2018-04-25T05:44:06.828Z,11.00
2018-04-25T05:46:35.844Z,11.37
2018-04-25T05:49:04.078Z,10.70
2018-04-25T05:51:33.403Z,10.53
2018-04-25T05:54:01.635Z,10.87
2018-04-25T05:56:29.884Z,10.63
2018-04-25T05:58:58.115Z,10.63
2018-04-25T06:01:27.135Z,10.50
2018-04-25T06:03:55.371Z,10.80
2018-04-25T06:06:24.379Z,11.00
2018-04-25T06:08:52.627Z,11.13
2018-04-25T06:11:21.645Z,11.00
2018-04-25T06:13:49.891Z,11.17
2018-04-25T06:16:18.127Z,10.60
2018-04-25T06:18:46.367Z,9.73
2018-04-25T06:21:14.596Z,9.10
2018-04-25T06:23:42.840Z,10.07
2018-04-25T06:26:11.053Z,6.73
2018-04-25T06:28:39.292Z,6.73
2018-04-25T06:31:07.523Z,7.33
2018-04-25T06:33:36.531Z,7.23
2018-04-25T06:36:04.755Z,7.53
2018-04-25T06:38:32.991Z,7.70
2018-04-25T06:41:01.224Z,8.00
2018-04-25T06:43:29.462Z,8.60
2018-04-25T06:45:57.694Z,8.47
2018-04-25T06:48:26.703Z,8.20
2018-04-25T06:50:54.930Z,8.53
2018-04-25T06:53:23.162Z,6.37
2018-04-25T06:55:51.396Z,6.40
2018-04-25T06:58:20.396Z,5.23
2018-04-25T07:00:48.630Z,5.80
2018-04-25T07:03:16.871Z,5.57
2018-04-25T07:05:45.099Z,4.83
2018-04-25T07:08:14.142Z,4.27
2018-04-25T07:10:43.103Z,4.80
2018-04-25T07:13:11.349Z,4.77
2018-04-25T07:15:39.927Z,4.70
2018-04-25T07:18:08.142Z,5.80
2018-04-25T07:20:36.373Z,4.90
2018-04-25T07:23:04.593Z,4.70
2018-04-25T07:25:32.831Z,4.20
2018-04-25T07:28:01.827Z,4.33
2018-04-25T07:30:30.833Z,3.90
2018-04-25T07:32:59.062Z,3.63
2018-04-25T07:35:27.360Z,3.50
2018-04-25T07:37:55.530Z,2.87
2018-04-25T07:40:23.770Z,3.33
2018-04-25T07:42:52.006Z,5.30
2018-04-25T07:45:20.245Z,2.63
2018-04-25T07:47:48.479Z,2.80
2018-04-25T07:50:16.714Z,2.87
2018-04-25T07:52:45.719Z,3.03
2018-04-25T07:55:13.952Z,2.63
2018-04-25T07:57:42.259Z,2.60
2018-04-25T08:00:10.419Z,2.50
2018-04-25T08:02:39.408Z,3.07
2018-04-25T08:05:08.425Z,2.23
2018-04-25T08:07:36.674Z,3.03
2018-04-25T08:10:05.683Z,3.13
2018-04-25T08:12:45.901Z,4.87
2018-04-25T08:15:26.018Z,3.10
2018-04-25T08:18:06.206Z,5.00
2018-04-25T08:20:49.195Z,3.50
2018-04-25T08:23:17.423Z,5.13
2018-04-25T08:25:46.435Z,2.70
2018-04-25T08:28:14.654Z,4.53
2018-04-25T08:30:43.663Z,3.80
2018-04-25T08:33:11.888Z,5.03
2018-04-25T08:35:40.131Z,4.63
2018-04-25T08:38:09.114Z,3.80
2018-04-25T08:40:38.101Z,4.47
2018-04-25T08:43:07.107Z,4.63
2018-04-25T08:45:36.190Z,4.80
2018-04-25T08:48:05.207Z,4.93
2018-04-25T08:50:33.430Z,5.30
2018-04-25T08:53:01.665Z,5.20
2018-04-25T08:55:30.404Z,4.70
2018-04-25T08:57:58.619Z,4.40
2018-04-25T09:00:26.850Z,4.57
2018-04-25T09:02:55.079Z,5.70
2018-04-25T09:05:23.304Z,3.33
2018-04-25T09:07:52.310Z,4.90
2018-04-25T09:10:21.314Z,4.13
2018-04-25T09:12:49.560Z,3.57
2018-04-25T09:15:17.783Z,4.80
2018-04-25T09:17:46.029Z,6.80
2018-04-25T09:20:14.291Z,6.03
2018-04-25T09:22:42.490Z,4.20
2018-04-25T09:25:10.721Z,6.23
2018-04-25T09:27:38.962Z,4.47
2018-04-25T09:30:07.184Z,5.67
2018-04-25T09:32:36.187Z,5.73
2018-04-25T09:35:05.179Z,1.80
2018-04-25T09:37:33.430Z,4.63
2018-04-25T09:40:01.661Z,3.90
2018-04-25T09:42:29.914Z,4.63
2018-04-25T09:44:58.141Z,3.27
2018-04-25T09:47:26.729Z,3.70
2018-04-25T09:49:54.931Z,2.37
2018-04-25T09:52:23.943Z,4.27
2018-04-25T09:54:52.174Z,5.17
2018-04-25T09:57:20.410Z,3.57
2018-04-25T09:59:48.640Z,3.83
2018-04-25T10:02:23.238Z,4.00
2018-04-25T10:04:51.474Z,3.67
2018-04-25T10:07:19.710Z,3.23
2018-04-25T10:09:48.698Z,1.67
2018-04-25T10:12:18.180Z,2.87
2018-04-25T10:14:46.370Z,2.90
2018-04-25T10:17:15.450Z,2.83
2018-04-25T10:19:43.594Z,2.43
2018-04-25T10:22:11.823Z,2.37
2018-04-25T10:24:40.065Z,6.83
2018-04-25T10:27:08.284Z,3.60
2018-04-25T10:29:36.538Z,5.20
2018-04-25T10:32:05.530Z,3.67
2018-04-25T10:34:33.743Z,2.00
2018-04-25T10:37:01.966Z,1.70
2018-04-25T10:39:30.968Z,2.10
2018-04-25T10:41:59.958Z,2.27
2018-04-25T10:44:28.967Z,2.13
2018-04-25T10:46:57.200Z,2.93
2018-04-25T10:49:25.436Z,3.17
2018-04-25T10:51:53.659Z,2.83
2018-04-25T10:54:22.664Z,1.27
2018-04-25T10:56:50.903Z,3.17
2018-04-25T10:59:19.134Z,1.53
2018-04-25T11:01:47.365Z,1.90
2018-04-25T11:04:15.598Z,1.77
2018-04-25T11:06:43.831Z,4.90
2018-04-25T11:09:12.834Z,2.83
2018-04-25T11:11:41.054Z,3.90
2018-04-25T11:14:09.295Z,3.17
2018-04-25T11:16:37.512Z,1.77
2018-04-25T11:19:05.744Z,2.53
2018-04-25T11:21:33.973Z,7.67
2018-04-25T11:24:02.979Z,4.17
2018-04-25T11:26:32.042Z,2.77
2018-04-25T11:29:00.975Z,5.20
2018-04-25T11:31:29.197Z,3.10
2018-04-25T11:33:57.447Z,2.80
2018-04-25T11:36:25.671Z,1.93
2018-04-25T11:38:54.675Z,2.10
2018-04-25T11:41:22.903Z,2.97
2018-04-25T11:43:51.139Z,3.50
2018-04-25T11:46:19.370Z,2.23
2018-04-25T11:48:47.610Z,5.93
2018-04-25T11:51:15.830Z,1.73
2018-04-25T11:53:44.839Z,2.70
2018-04-25T11:56:13.147Z,2.20
2018-04-25T11:58:41.383Z,3.73
2018-04-25T12:01:10.675Z,1.73
2018-04-25T12:03:39.821Z,5.20
2018-04-25T12:06:08.970Z,4.27
2018-04-25T12:08:37.980Z,2.57
2018-04-25T12:11:06.253Z,4.47
2018-04-25T12:13:34.446Z,1.80
2018-04-25T12:16:02.675Z,6.23
2018-04-25T12:18:31.681Z,1.80
2018-04-25T12:20:59.931Z,2.10
2018-04-25T12:23:28.159Z,6.40
2018-04-25T12:25:56.399Z,1.93
2018-04-25T12:28:24.626Z,2.83
2018-04-25T12:30:52.871Z,3.60
2018-04-25T12:33:21.102Z,2.83
2018-04-25T12:35:50.192Z,6.80
2018-04-25T12:38:18.343Z,3.20
2018-04-25T12:40:46.582Z,4.27
2018-04-25T12:43:14.828Z,2.83
2018-04-25T12:45:43.086Z,2.43
2018-04-25T12:48:12.083Z,4.07
2018-04-25T12:50:41.087Z,3.00
2018-04-25T12:53:10.074Z,1.87
2018-04-25T12:55:39.088Z,3.03
2018-04-25T12:58:07.327Z,4.50
2018-04-25T13:00:35.551Z,2.50
2018-04-25T13:03:03.776Z,4.13
2018-04-25T13:05:32.774Z,4.73
2018-04-25T13:08:01.771Z,4.07
2018-04-25T13:10:30.779Z,5.13
2018-04-25T13:12:59.031Z,4.20
2018-04-25T13:15:28.031Z,2.83
2018-04-25T13:17:56.253Z,2.80
2018-04-25T13:20:24.499Z,6.20
2018-04-25T13:22:52.730Z,3.07
2018-04-25T13:25:21.423Z,3.10
2018-04-25T13:27:49.642Z,3.13
2018-04-25T13:30:17.888Z,4.60
2018-04-25T13:32:46.877Z,3.20
2018-04-25T13:35:15.891Z,3.57
2018-04-25T13:37:44.150Z,4.80
2018-04-25T13:40:12.363Z,3.37
2018-04-25T13:42:40.646Z,4.27
2018-04-25T13:45:08.891Z,3.17
2018-04-25T13:47:37.114Z,3.17
2018-04-25T13:50:05.350Z,4.80
2018-04-25T13:52:33.616Z,3.63
2018-04-25T13:55:01.937Z,4.90
2018-04-25T13:57:30.167Z,4.43
2018-04-25T13:59:58.405Z,3.27
2018-04-25T14:02:26.630Z,4.03
2018-04-25T14:04:54.863Z,3.37
2018-04-25T14:07:23.100Z,6.77
2018-04-25T14:09:51.334Z,4.40
2018-04-25T14:12:19.558Z,7.17
2018-04-25T14:14:48.567Z,5.40
2018-04-25T14:17:16.815Z,4.80
2018-04-25T14:19:45.050Z,2.67
2018-04-25T14:22:13.289Z,2.87
2018-04-25T14:24:42.330Z,2.60
2018-04-25T14:27:11.286Z,4.00
2018-04-25T14:29:39.511Z,4.37
2018-04-25T14:32:07.750Z,6.43
2018-04-25T14:34:36.036Z,8.87
2018-04-25T14:37:04.267Z,2.90
2018-04-25T14:39:32.498Z,4.40
2018-04-25T14:42:00.735Z,4.97
2018-04-25T14:44:29.377Z,4.83
2018-04-25T14:46:57.606Z,3.37
2018-04-25T14:49:25.837Z,4.60
2018-04-25T14:51:54.842Z,5.17
2018-04-25T14:54:23.070Z,5.40
2018-04-25T14:56:51.310Z,4.27
2018-04-25T14:59:19.538Z,8.93
2018-04-25T15:01:48.539Z,6.93
2018-04-25T15:04:17.543Z,7.83
2018-04-25T15:06:46.551Z,5.50
2018-04-25T15:09:14.771Z,5.37
2018-04-25T15:11:43.006Z,6.27
2018-04-25T15:14:11.239Z,11.77
2018-04-25T15:16:40.250Z,8.27
2018-04-25T15:19:08.464Z,4.90
2018-04-25T15:21:36.704Z,5.30
2018-04-25T15:24:04.938Z,7.43
2018-04-25T15:26:33.182Z,9.17
2018-04-25T15:29:01.407Z,7.50
2018-04-25T15:31:30.421Z,5.87
2018-04-25T15:33:58.643Z,5.80
2018-04-25T15:36:26.898Z,4.80
2018-04-25T15:38:55.245Z,4.87
2018-04-25T15:41:23.881Z,4.97
2018-04-25T15:43:52.292Z,3.80
2018-04-25T15:46:22.385Z,4.33
2018-04-25T15:48:50.622Z,4.83
2018-04-25T15:51:19.771Z,5.00
2018-04-25T15:53:48.860Z,6.93
2018-04-25T15:56:17.852Z,4.70
2018-04-25T15:58:46.855Z,5.03
2018-04-25T16:01:15.079Z,5.17
2018-04-25T16:03:43.333Z,5.03
2018-04-25T16:06:11.557Z,5.40
2018-04-25T16:08:40.564Z,7.07
2018-04-25T16:11:09.668Z,6.30
2018-04-25T16:13:37.841Z,5.80
2018-04-25T16:16:06.069Z,6.43
2018-04-25T16:18:34.311Z,7.07
2018-04-25T16:21:02.544Z,6.00
2018-04-25T16:23:31.535Z,7.30
2018-04-25T16:26:00.575Z,5.23
2018-04-25T16:28:28.910Z,5.53
2018-04-25T16:30:57.050Z,5.73
2018-04-25T16:33:25.344Z,6.40
2018-04-25T16:35:54.730Z,5.57
2018-04-25T16:38:22.950Z,5.87
2018-04-25T16:40:51.175Z,7.17
2018-04-25T16:43:19.563Z,5.83
2018-04-25T16:45:47.772Z,7.60
2018-04-25T16:48:16.000Z,6.57
2018-04-25T16:50:44.237Z,7.40
2018-04-25T16:53:12.463Z,7.00
2018-04-25T16:55:41.467Z,7.43
2018-04-25T16:58:09.724Z,6.97
2018-04-25T17:00:38.732Z,6.07
2018-04-25T17:03:07.722Z,7.37
2018-04-25T17:05:35.965Z,7.00
2018-04-25T17:08:04.717Z,6.63
2018-04-25T17:10:33.384Z,6.67
2018-04-25T17:13:01.667Z,7.03
2018-04-25T17:15:29.909Z,6.53
2018-04-25T17:17:58.898Z,7.40
2018-04-25T17:20:27.955Z,7.33
2018-04-25T17:22:56.238Z,5.20
2018-04-25T17:25:25.631Z,7.00
2018-04-25T17:27:55.117Z,4.50
2018-04-25T17:30:23.355Z,4.17
2018-04-25T17:32:51.579Z,4.73
2018-04-25T17:35:19.826Z,4.63
2018-04-25T17:37:48.052Z,5.23
2018-04-25T17:40:17.059Z,4.80
2018-04-25T17:42:46.062Z,4.40
2018-04-25T17:45:15.039Z,4.20
2018-04-25T17:47:44.045Z,3.97
2018-04-25T17:50:13.071Z,5.80
2018-04-25T17:52:41.294Z,4.53
2018-04-25T17:55:10.299Z,4.00
2018-04-25T17:57:38.654Z,3.90
2018-04-25T18:00:06.763Z,4.90
2018-04-25T18:02:35.012Z,5.57
2018-04-25T18:05:03.995Z,4.43
2018-04-25T18:07:33.128Z,3.87
2018-04-25T18:10:01.339Z,4.43
2018-04-25T18:12:29.575Z,4.77
2018-04-25T18:14:57.812Z,3.33
2018-04-25T18:17:26.858Z,4.33
2018-04-25T18:19:55.080Z,4.03
2018-04-25T18:22:24.117Z,4.53
2018-04-25T18:24:53.064Z,4.47
2018-04-25T18:27:22.067Z,5.63
2018-04-25T18:29:51.059Z,4.43
2018-04-25T18:32:20.055Z,3.90
2018-04-25T18:34:48.277Z,4.63
2018-04-25T18:37:16.528Z,4.30
2018-04-25T18:39:44.726Z,4.60
2018-04-25T18:42:13.103Z,4.40
2018-04-25T18:44:41.592Z,4.53
2018-04-25T18:47:10.754Z,5.37
2018-04-25T18:49:39.136Z,5.20
2018-04-25T18:52:07.681Z,5.10
2018-04-25T18:54:36.795Z,4.53
2018-04-25T18:57:05.039Z,5.13
2018-04-25T18:59:34.311Z,4.47
2018-04-25T19:02:03.114Z,4.47
2018-04-25T19:04:32.110Z,4.13
2018-04-25T19:07:01.117Z,4.10
2018-04-25T19:09:29.365Z,4.50
2018-04-25T19:11:57.914Z,4.23
2018-04-25T19:14:26.156Z,4.60
2018-04-25T19:16:54.388Z,4.53
2018-04-25T19:19:22.740Z,5.00
2018-04-25T19:21:50.989Z,5.13
2018-04-25T19:24:19.552Z,5.10
2018-04-25T19:26:48.748Z,5.63
2018-04-25T19:29:17.753Z,5.80
2018-04-25T19:31:45.967Z,6.07
2018-04-25T19:34:14.203Z,4.90
2018-04-25T19:36:42.888Z,5.30
2018-04-25T19:39:11.129Z,5.30
2018-04-25T19:41:40.111Z,5.40
2018-04-25T19:44:08.496Z,5.87
2018-04-25T19:46:36.743Z,5.43
2018-04-25T19:49:04.977Z,5.40
2018-04-25T19:51:33.195Z,5.90
2018-04-25T19:54:01.615Z,6.10
2018-04-25T19:56:29.858Z,5.87
2018-04-25T19:58:58.368Z,7.20
2018-04-25T20:01:26.655Z,7.13
2018-04-25T20:03:54.898Z,5.87
2018-04-25T20:06:23.883Z,6.03
2018-04-25T20:08:52.150Z,7.10
2018-04-25T20:11:20.387Z,6.47
2018-04-25T20:13:48.683Z,6.93
2018-04-25T20:16:17.617Z,7.50
2018-04-25T20:18:45.862Z,6.47
2018-04-25T20:21:14.087Z,6.77
2018-04-25T20:23:42.319Z,7.60
2018-04-25T20:26:11.304Z,6.53
2018-04-25T20:28:39.534Z,7.50
2018-04-25T20:31:07.751Z,7.50
2018-04-25T20:33:35.993Z,7.43
2018-04-25T20:36:04.208Z,7.37
2018-04-25T20:38:33.207Z,9.13
2018-04-25T20:41:02.198Z,7.40
2018-04-25T20:43:31.194Z,7.63
2018-04-25T20:45:59.412Z,7.63
2018-04-25T20:48:27.655Z,8.13
2018-04-25T20:50:55.880Z,7.87
2018-04-25T20:53:24.116Z,9.37
2018-04-25T20:55:52.382Z,7.63
2018-04-25T20:58:20.615Z,8.40
2018-04-25T21:00:48.835Z,8.27
2018-04-25T21:03:17.063Z,7.57
2018-04-25T21:05:45.316Z,8.17
2018-04-25T21:08:13.528Z,8.93
2018-04-25T21:10:42.520Z,10.47
2018-04-25T21:13:11.516Z,9.33
2018-04-25T21:15:39.741Z,9.13
2018-04-25T21:18:07.975Z,9.37
2018-04-25T21:20:36.197Z,9.20
2018-04-25T21:23:04.446Z,10.57
2018-04-25T21:25:32.679Z,12.07
2018-04-25T21:28:01.683Z,10.10
2018-04-25T21:30:29.922Z,10.70
2018-04-25T21:32:58.152Z,11.97
2018-04-25T21:35:26.392Z,11.17
2018-04-25T21:37:54.618Z,11.50
2018-04-25T21:40:22.852Z,10.67
2018-04-25T21:42:51.112Z,10.80
2018-04-25T21:45:20.103Z,10.70
2018-04-25T21:47:48.327Z,11.93
2018-04-25T21:50:16.569Z,12.17
2018-04-25T21:52:44.806Z,12.23
2018-04-25T21:55:13.178Z,12.40
2018-04-25T21:57:41.405Z,11.73
2018-04-25T22:00:09.650Z,12.80
2018-04-25T22:02:37.883Z,13.83
2018-04-25T22:05:06.123Z,13.00
2018-04-25T22:07:34.756Z,13.90
2018-04-25T22:10:02.966Z,15.17
2018-04-25T22:12:31.197Z,14.07
2018-04-25T22:14:59.439Z,13.67
2018-04-25T22:17:27.675Z,15.50
2018-04-25T22:19:55.920Z,16.10
2018-04-25T22:22:24.146Z,15.20
2018-04-25T22:24:52.390Z,15.67
2018-04-25T22:27:21.388Z,14.23
2018-04-25T22:29:49.627Z,14.97
2018-04-25T22:32:17.859Z,15.70
2018-04-25T22:34:46.112Z,15.20
2018-04-25T22:37:14.332Z,16.13
2018-04-25T22:39:42.574Z,15.80
2018-04-25T22:42:10.806Z,15.87
2018-04-25T22:44:39.046Z,16.20
2018-04-25T22:47:07.278Z,17.20
2018-04-25T22:49:35.518Z,17.07
2018-04-25T22:52:03.747Z,17.20
2018-04-25T22:54:31.991Z,15.53
2018-04-25T22:57:00.982Z,14.60
2018-04-25T22:59:29.996Z,13.07
2018-04-25T23:01:58.220Z,13.43
2018-04-25T23:04:26.462Z,12.00
2018-04-25T23:06:54.691Z,10.90
2018-04-25T23:09:23.691Z,11.03
2018-04-25T23:11:51.983Z,11.23
2018-04-25T23:14:20.222Z,11.90
2018-04-25T23:16:49.219Z,10.80
2018-04-25T23:19:18.215Z,8.20
2018-04-25T23:21:47.194Z,9.37
2018-04-25T23:24:16.203Z,8.77
2018-04-25T23:26:45.194Z,10.03
2018-04-25T23:29:14.190Z,9.73
2018-04-25T23:31:43.182Z,8.37
2018-04-25T23:34:12.167Z,8.87
2018-04-25T23:36:41.167Z,9.20
2018-04-25T23:39:09.387Z,11.03
2018-04-25T23:41:37.623Z,8.83
2018-04-25T23:44:06.414Z,7.60
2018-04-25T23:46:35.387Z,7.40
2018-04-25T23:49:04.371Z,7.80
2018-04-25T23:51:33.376Z,8.83
2018-04-25T23:54:02.359Z,8.73
2018-04-25T23:56:31.358Z,6.30
2018-04-25T23:58:59.575Z,8.07
